首页
METAR-TAF:

METAR-TAF

机场 :

Newport News/Williamsburg International Airport

紐波特紐斯, 弗吉尼亚州, 美国

纬度: 37-07-55N, 经度: 076-29-35W, 海拔: 13米

当前天气观测

该预报发布于58分钟前的08:54 UTC
风速9节,风向西南
温度 23°C
湿度 89%
气压 1017 hPa
能見度: 16.1公里
散云层高于1700英尺
散云层高于8000英尺
多云层高于9000英尺

METAR: KPHF 260854Z AUTO 23009KT 10SM SCT017 SCT080 BKN090 23/21 A3004 RMK AO2 RAE05 TSE09 SLP170 P0000 60014 T02280206 56003

时间: 05:52 (09:52 UTC)

预报

该预报发布于53分钟前的08:59 UTC
预报有效从26日的 09点(UTC)到 27日的 06点(UTC)
风速9节,风向西南
能見度: 10公里
散云层高于2000英尺
散云层高于9000英尺
从 26日的 1000点(UTC)
风速9节,风向西南
能見度: 10公里
天空无云
从 26日的 1300点(UTC)
风速8节,风向西转西南
能見度: 10公里
散云层高于25000英尺
从 26日的 2300点(UTC)
风速5节,风向
能見度: 10公里
多云层高于20000英尺
从 27日的 0500点(UTC)
风速4节,风向西转西北
能見度: 10公里
散云层高于10000英尺

TAF: KPHF 260859Z 2609/2706 22009KT P6SM SCT020 SCT090 FM261000 23009KT P6SM SKC FM261300 25008KT P6SM SCT250 FM262300 18005KT P6SM BKN200 FM270500 30004KT P6SM SCT100

超过4000个机场的气象观测和天气预报(METAR&TAF报告)。

可查询的气象台以黄色和红色小点在地图上表示。

将鼠标移到小点上方,可查看气象台名称。

然后点击查看天气观测和预报。

如需切换地图:点击带黑十字的绿色按钮放大地图;点击带横线的绿色按钮缩小地图;或者点击绿色箭头查看邻近地区的地图。


METAR-TAF: